Finningley, United Kingdom
Current Conditions -  °F | °C
As of 11:50 AM on Monday 22 Dec 2014 (Local Time) from EGCN Reporting Station
Overcast Overcast  
Wind Chill: 57°   Ceiling: 2300
Heat Index: 57°   Visibility: 6mi
Dew Point: 50°   Wind: 20mph
Humidity: 77%   Direction: 230°SW
Pressure: 29.83"   Gusts: NA
Location:  53.49°N, 0.99°W
Report Text: EGCN 221150Z 23017KT 9999 BKN023 OVC029 14/10 Q1010
Loading
Personal Weather Stations






























Interactive Weather Map New forecast layout! Learn more

10-Day Weather Forecast

Advertisements
Track Severe Weather on mobile